Terminal Aerodrome Forecast
Issued by NWS

Home | Current Version | Previous Version | Text Only | Print | Product List | Glossary On
Versions: 1 2 3 4 5 6 7 8 9 10 11 12
000
FTUS44 KLUB 202300
TAFCDS
TAF
KCDS 202328Z 2100/2124 18013G21KT P6SM FEW080 SCT250
     FM210200 17013KT P6SM SCT250
     FM211500 20015G23KT P6SM FEW080 SCT250=

USA.gov is the U.S. government's official web portal to all federal, state and local government web resources and services.